sensor_id;sensor_type;location;lat;lon;timestamp;P1;durP1;ratioP1;P2;durP2;ratioP2
55216;SDS011;41086;46.736;15.666;2022-12-07T00:01:17;24.83;;;13.75;;
55216;SDS011;41086;46.736;15.666;2022-12-07T00:03:46;18.52;;;11.15;;
55216;SDS011;41086;46.736;15.666;2022-12-07T00:06:15;20.85;;;12.35;;
55216;SDS011;41086;46.736;15.666;2022-12-07T00:08:43;20.45;;;11.60;;
55216;SDS011;41086;46.736;15.666;2022-12-07T00:11:12;16.90;;;10.02;;
55216;SDS011;41086;46.736;15.666;2022-12-07T00:16:23;20.88;;;10.77;;
55216;SDS011;41086;46.736;15.666;2022-12-07T00:18:52;22.08;;;11.90;;
55216;SDS011;41086;46.736;15.666;2022-12-07T00:21:19;23.17;;;12.65;;
55216;SDS011;41086;46.736;15.666;2022-12-07T00:23:49;28.52;;;14.73;;
55216;SDS011;41086;46.736;15.666;2022-12-07T00:26:21;20.50;;;11.45;;
55216;SDS011;41086;46.736;15.666;2022-12-07T00:28:56;36.05;;;16.08;;
55216;SDS011;41086;46.736;15.666;2022-12-07T00:31:26;17.02;;;8.70;;
55216;SDS011;41086;46.736;15.666;2022-12-07T00:33:54;29.35;;;14.45;;
55216;SDS011;41086;46.736;15.666;2022-12-07T00:36:23;31.23;;;17.13;;
55216;SDS011;41086;46.736;15.666;2022-12-07T00:38:53;25.48;;;12.45;;
55216;SDS011;41086;46.736;15.666;2022-12-07T00:41:22;20.98;;;13.18;;
55216;SDS011;41086;46.736;15.666;2022-12-07T00:43:50;27.58;;;13.82;;
55216;SDS011;41086;46.736;15.666;2022-12-07T00:48:45;12.15;;;6.90;;
55216;SDS011;41086;46.736;15.666;2022-12-07T00:51:14;28.63;;;14.35;;
55216;SDS011;41086;46.736;15.666;2022-12-07T00:53:42;22.73;;;12.70;;
55216;SDS011;41086;46.736;15.666;2022-12-07T00:56:14;19.05;;;10.30;;
55216;SDS011;41086;46.736;15.666;2022-12-07T00:58:52;18.17;;;8.68;;
55216;SDS011;41086;46.736;15.666;2022-12-07T01:01:23;16.98;;;9.90;;
55216;SDS011;41086;46.736;15.666;2022-12-07T01:03:51;16.20;;;9.85;;
55216;SDS011;41086;46.736;15.666;2022-12-07T01:06:19;14.65;;;8.60;;
55216;SDS011;41086;46.736;15.666;2022-12-07T01:08:47;26.17;;;14.88;;
55216;SDS011;41086;46.736;15.666;2022-12-07T01:11:15;23.13;;;12.60;;
55216;SDS011;41086;46.736;15.666;2022-12-07T01:13:44;28.77;;;14.60;;
55216;SDS011;41086;46.736;15.666;2022-12-07T01:18:40;26.25;;;14.18;;
55216;SDS011;41086;46.736;15.666;2022-12-07T01:21:09;23.48;;;13.07;;
55216;SDS011;41086;46.736;15.666;2022-12-07T01:23:37;24.17;;;13.35;;
55216;SDS011;41086;46.736;15.666;2022-12-07T01:28:32;18.63;;;9.82;;
55216;SDS011;41086;46.736;15.666;2022-12-07T01:31:00;23.98;;;12.98;;
55216;SDS011;41086;46.736;15.666;2022-12-07T01:33:33;14.38;;;7.47;;
55216;SDS011;41086;46.736;15.666;2022-12-07T01:36:23;17.13;;;9.90;;
55216;SDS011;41086;46.736;15.666;2022-12-07T01:38:49;17.27;;;9.40;;
55216;SDS011;41086;46.736;15.666;2022-12-07T01:41:19;22.08;;;13.80;;
55216;SDS011;41086;46.736;15.666;2022-12-07T01:46:32;21.17;;;11.98;;
55216;SDS011;41086;46.736;15.666;2022-12-07T01:48:59;22.63;;;12.68;;
55216;SDS011;41086;46.736;15.666;2022-12-07T01:51:26;20.52;;;11.25;;
55216;SDS011;41086;46.736;15.666;2022-12-07T01:53:54;24.92;;;13.93;;
55216;SDS011;41086;46.736;15.666;2022-12-07T01:56:23;27.15;;;13.77;;
55216;SDS011;41086;46.736;15.666;2022-12-07T01:58:53;19.60;;;10.00;;
55216;SDS011;41086;46.736;15.666;2022-12-07T02:01:22;26.73;;;14.50;;
55216;SDS011;41086;46.736;15.666;2022-12-07T02:03:49;25.00;;;14.20;;
55216;SDS011;41086;46.736;15.666;2022-12-07T02:06:17;25.48;;;14.15;;
55216;SDS011;41086;46.736;15.666;2022-12-07T02:08:47;22.48;;;12.07;;
55216;SDS011;41086;46.736;15.666;2022-12-07T02:11:15;22.65;;;12.00;;
55216;SDS011;41086;46.736;15.666;2022-12-07T02:13:42;23.17;;;12.38;;
55216;SDS011;41086;46.736;15.666;2022-12-07T02:16:23;26.10;;;13.63;;
55216;SDS011;41086;46.736;15.666;2022-12-07T02:29:30;25.13;;;13.80;;
55216;SDS011;41086;46.736;15.666;2022-12-07T02:32:06;19.17;;;10.40;;
55216;SDS011;41086;46.736;15.666;2022-12-07T02:34:56;27.02;;;14.05;;
55216;SDS011;41086;46.736;15.666;2022-12-07T02:37:35;26.17;;;13.45;;
55216;SDS011;41086;46.736;15.666;2022-12-07T02:42:50;26.48;;;13.65;;
55216;SDS011;41086;46.736;15.666;2022-12-07T02:45:20;18.90;;;10.07;;
55216;SDS011;41086;46.736;15.666;2022-12-07T02:47:50;21.92;;;11.48;;
55216;SDS011;41086;46.736;15.666;2022-12-07T02:50:20;22.70;;;10.32;;
55216;SDS011;41086;46.736;15.666;2022-12-07T02:52:47;22.25;;;12.02;;
55216;SDS011;41086;46.736;15.666;2022-12-07T02:55:14;23.88;;;11.35;;
55216;SDS011;41086;46.736;15.666;2022-12-07T02:57:54;20.77;;;10.93;;
55216;SDS011;41086;46.736;15.666;2022-12-07T03:00:51;17.85;;;8.07;;
55216;SDS011;41086;46.736;15.666;2022-12-07T03:03:37;25.60;;;12.40;;
55216;SDS011;41086;46.736;15.666;2022-12-07T03:06:22;18.45;;;10.65;;
55216;SDS011;41086;46.736;15.666;2022-12-07T03:09:00;31.52;;;15.68;;
55216;SDS011;41086;46.736;15.666;2022-12-07T03:11:55;26.52;;;14.13;;
55216;SDS011;41086;46.736;15.666;2022-12-07T03:14:39;38.17;;;17.45;;
55216;SDS011;41086;46.736;15.666;2022-12-07T03:17:30;31.30;;;15.38;;
55216;SDS011;41086;46.736;15.666;2022-12-07T03:20:02;29.70;;;15.00;;
55216;SDS011;41086;46.736;15.666;2022-12-07T03:22:32;23.48;;;10.80;;
55216;SDS011;41086;46.736;15.666;2022-12-07T03:25:04;17.02;;;8.57;;
55216;SDS011;41086;46.736;15.666;2022-12-07T03:27:39;15.20;;;8.73;;
55216;SDS011;41086;46.736;15.666;2022-12-07T03:30:18;16.17;;;8.80;;
55216;SDS011;41086;46.736;15.666;2022-12-07T03:32:55;21.15;;;10.82;;
55216;SDS011;41086;46.736;15.666;2022-12-07T03:35:34;22.30;;;10.25;;
55216;SDS011;41086;46.736;15.666;2022-12-07T03:41:01;18.95;;;9.52;;
55216;SDS011;41086;46.736;15.666;2022-12-07T03:43:38;16.92;;;9.80;;
55216;SDS011;41086;46.736;15.666;2022-12-07T03:49:17;17.13;;;9.25;;
55216;SDS011;41086;46.736;15.666;2022-12-07T03:51:54;16.38;;;8.07;;
55216;SDS011;41086;46.736;15.666;2022-12-07T03:54:31;20.87;;;9.50;;
55216;SDS011;41086;46.736;15.666;2022-12-07T03:57:03;14.33;;;6.23;;
55216;SDS011;41086;46.736;15.666;2022-12-07T03:59:32;23.33;;;10.85;;
55216;SDS011;41086;46.736;15.666;2022-12-07T04:02:03;22.15;;;9.82;;
55216;SDS011;41086;46.736;15.666;2022-12-07T04:04:31;22.02;;;10.20;;
55216;SDS011;41086;46.736;15.666;2022-12-07T04:06:59;35.22;;;14.23;;
55216;SDS011;41086;46.736;15.666;2022-12-07T04:09:26;34.63;;;13.80;;
55216;SDS011;41086;46.736;15.666;2022-12-07T04:11:54;28.45;;;11.68;;
55216;SDS011;41086;46.736;15.666;2022-12-07T04:14:21;35.50;;;11.90;;
55216;SDS011;41086;46.736;15.666;2022-12-07T04:16:48;37.03;;;14.68;;
55216;SDS011;41086;46.736;15.666;2022-12-07T04:19:16;38.70;;;15.00;;
55216;SDS011;41086;46.736;15.666;2022-12-07T04:21:44;35.50;;;15.20;;
55216;SDS011;41086;46.736;15.666;2022-12-07T04:24:11;32.53;;;13.40;;
55216;SDS011;41086;46.736;15.666;2022-12-07T04:26:40;55.97;;;16.27;;
55216;SDS011;41086;46.736;15.666;2022-12-07T04:29:08;64.32;;;15.63;;
55216;SDS011;41086;46.736;15.666;2022-12-07T04:31:36;110.32;;;20.70;;
55216;SDS011;41086;46.736;15.666;2022-12-07T04:34:03;96.07;;;18.80;;
55216;SDS011;41086;46.736;15.666;2022-12-07T04:36:30;53.15;;;15.02;;
55216;SDS011;41086;46.736;15.666;2022-12-07T04:41:25;48.50;;;15.57;;
55216;SDS011;41086;46.736;15.666;2022-12-07T04:44:02;44.58;;;13.38;;
55216;SDS011;41086;46.736;15.666;2022-12-07T04:46:31;34.95;;;13.15;;
55216;SDS011;41086;46.736;15.666;2022-12-07T04:48:58;17.80;;;8.82;;
55216;SDS011;41086;46.736;15.666;2022-12-07T04:51:27;23.67;;;8.45;;
55216;SDS011;41086;46.736;15.666;2022-12-07T04:53:55;34.67;;;9.40;;
55216;SDS011;41086;46.736;15.666;2022-12-07T04:56:22;112.15;;;19.83;;
55216;SDS011;41086;46.736;15.666;2022-12-07T04:58:50;113.35;;;15.88;;
55216;SDS011;41086;46.736;15.666;2022-12-07T05:01:19;132.63;;;21.25;;
55216;SDS011;41086;46.736;15.666;2022-12-07T05:03:46;197.35;;;22.25;;
55216;SDS011;41086;46.736;15.666;2022-12-07T05:06:14;103.07;;;17.85;;
55216;SDS011;41086;46.736;15.666;2022-12-07T05:08:42;170.35;;;21.40;;
55216;SDS011;41086;46.736;15.666;2022-12-07T05:11:10;100.25;;;18.20;;
55216;SDS011;41086;46.736;15.666;2022-12-07T05:13:57;62.97;;;11.37;;
55216;SDS011;41086;46.736;15.666;2022-12-07T05:16:24;71.72;;;16.42;;
55216;SDS011;41086;46.736;15.666;2022-12-07T05:18:50;34.13;;;11.50;;
55216;SDS011;41086;46.736;15.666;2022-12-07T05:21:17;83.65;;;18.33;;
55216;SDS011;41086;46.736;15.666;2022-12-07T05:23:44;86.55;;;16.75;;
55216;SDS011;41086;46.736;15.666;2022-12-07T05:26:11;77.30;;;18.25;;
55216;SDS011;41086;46.736;15.666;2022-12-07T05:28:38;113.20;;;18.40;;
55216;SDS011;41086;46.736;15.666;2022-12-07T05:31:05;84.50;;;17.67;;
55216;SDS011;41086;46.736;15.666;2022-12-07T05:33:32;122.35;;;19.38;;
55216;SDS011;41086;46.736;15.666;2022-12-07T05:35:59;112.15;;;17.05;;
55216;SDS011;41086;46.736;15.666;2022-12-07T05:38:31;141.18;;;19.67;;
55216;SDS011;41086;46.736;15.666;2022-12-07T05:41:02;133.20;;;17.58;;
55216;SDS011;41086;46.736;15.666;2022-12-07T05:43:31;224.50;;;26.27;;
55216;SDS011;41086;46.736;15.666;2022-12-07T05:45:58;171.32;;;24.17;;
55216;SDS011;41086;46.736;15.666;2022-12-07T05:48:26;60.17;;;16.48;;
55216;SDS011;41086;46.736;15.666;2022-12-07T05:50:52;205.02;;;25.17;;
55216;SDS011;41086;46.736;15.666;2022-12-07T05:53:19;26.33;;;10.07;;
55216;SDS011;41086;46.736;15.666;2022-12-07T05:55:48;88.55;;;17.70;;
55216;SDS011;41086;46.736;15.666;2022-12-07T05:58:15;171.48;;;20.48;;
55216;SDS011;41086;46.736;15.666;2022-12-07T06:01:01;186.85;;;25.77;;
55216;SDS011;41086;46.736;15.666;2022-12-07T06:03:28;138.68;;;21.27;;
55216;SDS011;41086;46.736;15.666;2022-12-07T06:08:22;31.27;;;8.05;;
55216;SDS011;41086;46.736;15.666;2022-12-07T06:10:49;56.70;;;14.27;;
55216;SDS011;41086;46.736;15.666;2022-12-07T06:13:36;72.20;;;16.30;;
55216;SDS011;41086;46.736;15.666;2022-12-07T06:16:10;54.80;;;15.65;;
55216;SDS011;41086;46.736;15.666;2022-12-07T06:18:37;69.22;;;17.42;;
55216;SDS011;41086;46.736;15.666;2022-12-07T06:21:04;55.17;;;13.68;;
55216;SDS011;41086;46.736;15.666;2022-12-07T06:23:31;82.85;;;17.08;;
55216;SDS011;41086;46.736;15.666;2022-12-07T06:25:57;71.70;;;17.92;;
55216;SDS011;41086;46.736;15.666;2022-12-07T06:28:24;82.53;;;17.95;;
55216;SDS011;41086;46.736;15.666;2022-12-07T06:31:00;146.35;;;22.23;;
55216;SDS011;41086;46.736;15.666;2022-12-07T06:33:28;70.03;;;18.42;;
55216;SDS011;41086;46.736;15.666;2022-12-07T06:35:55;53.20;;;15.43;;
55216;SDS011;41086;46.736;15.666;2022-12-07T06:38:22;112.75;;;22.52;;
55216;SDS011;41086;46.736;15.666;2022-12-07T06:40:49;169.52;;;23.30;;
55216;SDS011;41086;46.736;15.666;2022-12-07T06:43:16;244.98;;;24.67;;
55216;SDS011;41086;46.736;15.666;2022-12-07T06:45:42;250.05;;;26.20;;
55216;SDS011;41086;46.736;15.666;2022-12-07T06:48:09;192.07;;;26.00;;
55216;SDS011;41086;46.736;15.666;2022-12-07T06:50:36;216.25;;;23.38;;
55216;SDS011;41086;46.736;15.666;2022-12-07T06:53:03;172.75;;;23.33;;
55216;SDS011;41086;46.736;15.666;2022-12-07T06:55:29;256.25;;;29.10;;
55216;SDS011;41086;46.736;15.666;2022-12-07T06:57:56;270.05;;;29.65;;
55216;SDS011;41086;46.736;15.666;2022-12-07T07:00:24;188.52;;;21.30;;
55216;SDS011;41086;46.736;15.666;2022-12-07T07:02:51;213.98;;;26.42;;
55216;SDS011;41086;46.736;15.666;2022-12-07T07:05:17;184.55;;;24.52;;
55216;SDS011;41086;46.736;15.666;2022-12-07T07:07:44;234.48;;;24.67;;
55216;SDS011;41086;46.736;15.666;2022-12-07T07:10:31;121.63;;;22.35;;
55216;SDS011;41086;46.736;15.666;2022-12-07T07:12:58;171.23;;;23.27;;
55216;SDS011;41086;46.736;15.666;2022-12-07T07:15:24;233.05;;;27.90;;
55216;SDS011;41086;46.736;15.666;2022-12-07T07:17:51;169.32;;;21.98;;
55216;SDS011;41086;46.736;15.666;2022-12-07T07:20:18;226.45;;;26.15;;
55216;SDS011;41086;46.736;15.666;2022-12-07T07:22:45;194.75;;;22.23;;
55216;SDS011;41086;46.736;15.666;2022-12-07T07:25:12;142.00;;;19.58;;
55216;SDS011;41086;46.736;15.666;2022-12-07T07:27:39;265.45;;;27.75;;
55216;SDS011;41086;46.736;15.666;2022-12-07T07:30:06;167.75;;;22.52;;
55216;SDS011;41086;46.736;15.666;2022-12-07T07:32:33;104.53;;;15.70;;
55216;SDS011;41086;46.736;15.666;2022-12-07T07:35:00;247.45;;;25.48;;
55216;SDS011;41086;46.736;15.666;2022-12-07T07:37:27;327.67;;;32.80;;
55216;SDS011;41086;46.736;15.666;2022-12-07T07:39:54;201.85;;;23.13;;
55216;SDS011;41086;46.736;15.666;2022-12-07T07:42:21;199.77;;;24.45;;
55216;SDS011;41086;46.736;15.666;2022-12-07T07:44:48;149.88;;;20.77;;
55216;SDS011;41086;46.736;15.666;2022-12-07T07:47:15;219.10;;;22.90;;
55216;SDS011;41086;46.736;15.666;2022-12-07T07:49:42;146.70;;;17.10;;
55216;SDS011;41086;46.736;15.666;2022-12-07T07:52:13;128.25;;;12.85;;
55216;SDS011;41086;46.736;15.666;2022-12-07T07:54:40;170.57;;;22.02;;
55216;SDS011;41086;46.736;15.666;2022-12-07T07:57:07;28.52;;;8.18;;
55216;SDS011;41086;46.736;15.666;2022-12-07T07:59:34;125.75;;;17.50;;
55216;SDS011;41086;46.736;15.666;2022-12-07T08:02:00;91.70;;;14.82;;
55216;SDS011;41086;46.736;15.666;2022-12-07T08:04:27;73.78;;;10.30;;
55216;SDS011;41086;46.736;15.666;2022-12-07T08:06:54;80.75;;;16.48;;
55216;SDS011;41086;46.736;15.666;2022-12-07T08:09:21;57.35;;;11.98;;
55216;SDS011;41086;46.736;15.666;2022-12-07T08:11:47;86.32;;;15.02;;
55216;SDS011;41086;46.736;15.666;2022-12-07T08:14:14;74.72;;;16.02;;
55216;SDS011;41086;46.736;15.666;2022-12-07T08:16:41;83.30;;;17.00;;
55216;SDS011;41086;46.736;15.666;2022-12-07T08:19:08;117.03;;;19.60;;
55216;SDS011;41086;46.736;15.666;2022-12-07T08:21:34;88.47;;;18.27;;
55216;SDS011;41086;46.736;15.666;2022-12-07T08:24:01;116.75;;;18.30;;
55216;SDS011;41086;46.736;15.666;2022-12-07T08:26:28;211.13;;;27.85;;
55216;SDS011;41086;46.736;15.666;2022-12-07T08:28:55;150.57;;;23.63;;
55216;SDS011;41086;46.736;15.666;2022-12-07T08:31:21;85.35;;;17.85;;
55216;SDS011;41086;46.736;15.666;2022-12-07T08:33:48;33.97;;;8.50;;
55216;SDS011;41086;46.736;15.666;2022-12-07T08:36:16;27.08;;;9.60;;
55216;SDS011;41086;46.736;15.666;2022-12-07T08:38:43;9.65;;;4.30;;
55216;SDS011;41086;46.736;15.666;2022-12-07T08:41:30;45.55;;;12.68;;
55216;SDS011;41086;46.736;15.666;2022-12-07T08:43:57;13.25;;;4.85;;
55216;SDS011;41086;46.736;15.666;2022-12-07T08:46:25;25.13;;;9.43;;
55216;SDS011;41086;46.736;15.666;2022-12-07T08:48:56;32.53;;;9.32;;
55216;SDS011;41086;46.736;15.666;2022-12-07T08:51:39;50.53;;;13.27;;
55216;SDS011;41086;46.736;15.666;2022-12-07T08:54:07;87.55;;;18.05;;
55216;SDS011;41086;46.736;15.666;2022-12-07T08:56:40;136.80;;;19.00;;
55216;SDS011;41086;46.736;15.666;2022-12-07T08:59:08;190.45;;;25.45;;
55216;SDS011;41086;46.736;15.666;2022-12-07T09:01:35;83.15;;;17.58;;
55216;SDS011;41086;46.736;15.666;2022-12-07T09:04:02;150.27;;;24.02;;
55216;SDS011;41086;46.736;15.666;2022-12-07T09:06:28;47.42;;;13.77;;
55216;SDS011;41086;46.736;15.666;2022-12-07T09:08:56;58.72;;;15.70;;
55216;SDS011;41086;46.736;15.666;2022-12-07T09:11:25;88.40;;;19.50;;
55216;SDS011;41086;46.736;15.666;2022-12-07T09:13:54;154.82;;;21.30;;
55216;SDS011;41086;46.736;15.666;2022-12-07T09:16:22;66.55;;;15.73;;
55216;SDS011;41086;46.736;15.666;2022-12-07T09:18:48;41.45;;;14.35;;
55216;SDS011;41086;46.736;15.666;2022-12-07T09:21:15;38.10;;;9.38;;
55216;SDS011;41086;46.736;15.666;2022-12-07T09:23:42;45.85;;;13.27;;
55216;SDS011;41086;46.736;15.666;2022-12-07T09:26:09;55.05;;;11.85;;
55216;SDS011;41086;46.736;15.666;2022-12-07T09:31:03;46.08;;;13.18;;
55216;SDS011;41086;46.736;15.666;2022-12-07T09:33:53;30.73;;;12.00;;
55216;SDS011;41086;46.736;15.666;2022-12-07T09:36:21;19.92;;;7.53;;
55216;SDS011;41086;46.736;15.666;2022-12-07T09:38:48;34.00;;;11.52;;
55216;SDS011;41086;46.736;15.666;2022-12-07T09:41:15;30.17;;;12.30;;
55216;SDS011;41086;46.736;15.666;2022-12-07T09:43:42;15.68;;;6.57;;
55216;SDS011;41086;46.736;15.666;2022-12-07T09:46:11;18.70;;;8.13;;
55216;SDS011;41086;46.736;15.666;2022-12-07T09:48:41;25.40;;;8.20;;
55216;SDS011;41086;46.736;15.666;2022-12-07T09:51:13;24.98;;;8.48;;
55216;SDS011;41086;46.736;15.666;2022-12-07T09:53:50;22.95;;;9.23;;
55216;SDS011;41086;46.736;15.666;2022-12-07T09:56:18;19.80;;;8.27;;
55216;SDS011;41086;46.736;15.666;2022-12-07T09:58:46;18.13;;;8.60;;
55216;SDS011;41086;46.736;15.666;2022-12-07T10:01:18;26.38;;;7.13;;
55216;SDS011;41086;46.736;15.666;2022-12-07T10:03:50;30.95;;;11.65;;
55216;SDS011;41086;46.736;15.666;2022-12-07T10:06:19;36.97;;;13.65;;
55216;SDS011;41086;46.736;15.666;2022-12-07T10:08:46;29.35;;;11.93;;
55216;SDS011;41086;46.736;15.666;2022-12-07T10:11:14;29.15;;;12.98;;
55216;SDS011;41086;46.736;15.666;2022-12-07T10:13:46;27.05;;;13.57;;
55216;SDS011;41086;46.736;15.666;2022-12-07T10:18:52;27.90;;;12.90;;
55216;SDS011;41086;46.736;15.666;2022-12-07T10:21:23;26.58;;;11.52;;
55216;SDS011;41086;46.736;15.666;2022-12-07T10:24:04;13.60;;;6.78;;
55216;SDS011;41086;46.736;15.666;2022-12-07T10:29:14;29.58;;;12.18;;
55216;SDS011;41086;46.736;15.666;2022-12-07T10:31:49;30.30;;;13.02;;
55216;SDS011;41086;46.736;15.666;2022-12-07T10:36:52;27.55;;;13.38;;
55216;SDS011;41086;46.736;15.666;2022-12-07T10:39:21;24.80;;;12.38;;
55216;SDS011;41086;46.736;15.666;2022-12-07T10:41:59;29.60;;;13.60;;
55216;SDS011;41086;46.736;15.666;2022-12-07T10:44:32;27.25;;;13.57;;
55216;SDS011;41086;46.736;15.666;2022-12-07T10:47:03;23.20;;;10.85;;
55216;SDS011;41086;46.736;15.666;2022-12-07T10:50:05;25.83;;;11.05;;
55216;SDS011;41086;46.736;15.666;2022-12-07T10:55:30;23.15;;;11.10;;
55216;SDS011;41086;46.736;15.666;2022-12-07T10:58:16;19.63;;;10.80;;
55216;SDS011;41086;46.736;15.666;2022-12-07T11:03:36;18.83;;;9.27;;
55216;SDS011;41086;46.736;15.666;2022-12-07T11:06:24;20.67;;;10.48;;
55216;SDS011;41086;46.736;15.666;2022-12-07T11:33:57;20.60;;;11.00;;
55216;SDS011;41086;46.736;15.666;2022-12-07T11:36:41;21.55;;;12.18;;
55216;SDS011;41086;46.736;15.666;2022-12-07T11:39:16;20.83;;;11.95;;
55216;SDS011;41086;46.736;15.666;2022-12-07T11:41:45;20.42;;;11.95;;
55216;SDS011;41086;46.736;15.666;2022-12-07T11:47:02;20.50;;;10.82;;
55216;SDS011;41086;46.736;15.666;2022-12-07T11:55:16;19.95;;;11.50;;
55216;SDS011;41086;46.736;15.666;2022-12-07T11:57:52;16.15;;;10.10;;
55216;SDS011;41086;46.736;15.666;2022-12-07T12:00:29;19.25;;;11.25;;
55216;SDS011;41086;46.736;15.666;2022-12-07T12:03:15;11.40;;;6.45;;
55216;SDS011;41086;46.736;15.666;2022-12-07T12:05:56;21.45;;;8.70;;
55216;SDS011;41086;46.736;15.666;2022-12-07T12:08:27;16.25;;;8.90;;
55216;SDS011;41086;46.736;15.666;2022-12-07T12:14:32;17.05;;;9.68;;
55216;SDS011;41086;46.736;15.666;2022-12-07T12:25:06;18.80;;;6.73;;
55216;SDS011;41086;46.736;15.666;2022-12-07T12:35:41;15.55;;;9.80;;
55216;SDS011;41086;46.736;15.666;2022-12-07T12:38:29;17.58;;;10.77;;
55216;SDS011;41086;46.736;15.666;2022-12-07T12:41:02;20.33;;;10.85;;
55216;SDS011;41086;46.736;15.666;2022-12-07T12:43:42;20.35;;;11.20;;
55216;SDS011;41086;46.736;15.666;2022-12-07T12:51:44;19.10;;;10.95;;
55216;SDS011;41086;46.736;15.666;2022-12-07T12:57:30;19.67;;;11.32;;
55216;SDS011;41086;46.736;15.666;2022-12-07T12:59:58;19.60;;;11.85;;
55216;SDS011;41086;46.736;15.666;2022-12-07T13:02:38;17.20;;;11.32;;
55216;SDS011;41086;46.736;15.666;2022-12-07T13:13:00;18.98;;;11.32;;
55216;SDS011;41086;46.736;15.666;2022-12-07T13:15:49;19.17;;;10.98;;
55216;SDS011;41086;46.736;15.666;2022-12-07T13:21:41;18.38;;;10.48;;
55216;SDS011;41086;46.736;15.666;2022-12-07T13:28:58;17.25;;;10.40;;
55216;SDS011;41086;46.736;15.666;2022-12-07T13:31:43;16.73;;;10.82;;
55216;SDS011;41086;46.736;15.666;2022-12-07T13:34:28;21.23;;;13.85;;
55216;SDS011;41086;46.736;15.666;2022-12-07T13:37:11;24.45;;;13.98;;
55216;SDS011;41086;46.736;15.666;2022-12-07T13:42:24;21.90;;;12.75;;
55216;SDS011;41086;46.736;15.666;2022-12-07T13:44:54;24.42;;;13.77;;
55216;SDS011;41086;46.736;15.666;2022-12-07T13:47:31;21.90;;;13.90;;
55216;SDS011;41086;46.736;15.666;2022-12-07T13:52:54;21.92;;;12.98;;
55216;SDS011;41086;46.736;15.666;2022-12-07T13:55:22;26.25;;;15.02;;
55216;SDS011;41086;46.736;15.666;2022-12-07T13:57:50;27.15;;;14.50;;
55216;SDS011;41086;46.736;15.666;2022-12-07T14:00:23;24.85;;;15.13;;
55216;SDS011;41086;46.736;15.666;2022-12-07T14:02:55;23.60;;;14.30;;
55216;SDS011;41086;46.736;15.666;2022-12-07T14:05:38;27.75;;;14.68;;
55216;SDS011;41086;46.736;15.666;2022-12-07T14:10:53;23.30;;;12.90;;
55216;SDS011;41086;46.736;15.666;2022-12-07T14:13:27;25.10;;;13.82;;
55216;SDS011;41086;46.736;15.666;2022-12-07T14:16:03;25.42;;;13.95;;
55216;SDS011;41086;46.736;15.666;2022-12-07T14:18:50;23.52;;;13.93;;
55216;SDS011;41086;46.736;15.666;2022-12-07T14:21:22;24.85;;;12.98;;
55216;SDS011;41086;46.736;15.666;2022-12-07T14:24:10;24.67;;;14.30;;
55216;SDS011;41086;46.736;15.666;2022-12-07T14:26:49;23.85;;;13.60;;
55216;SDS011;41086;46.736;15.666;2022-12-07T14:31:53;26.33;;;14.05;;
55216;SDS011;41086;46.736;15.666;2022-12-07T14:34:21;37.47;;;18.83;;
55216;SDS011;41086;46.736;15.666;2022-12-07T14:39:15;24.27;;;13.48;;
55216;SDS011;41086;46.736;15.666;2022-12-07T14:41:42;25.55;;;12.32;;
55216;SDS011;41086;46.736;15.666;2022-12-07T14:44:18;27.38;;;14.32;;
55216;SDS011;41086;46.736;15.666;2022-12-07T14:46:50;24.42;;;14.43;;
55216;SDS011;41086;46.736;15.666;2022-12-07T14:49:37;24.50;;;13.65;;
55216;SDS011;41086;46.736;15.666;2022-12-07T14:52:04;24.02;;;12.60;;
55216;SDS011;41086;46.736;15.666;2022-12-07T14:54:52;29.15;;;15.35;;
55216;SDS011;41086;46.736;15.666;2022-12-07T14:57:19;36.20;;;20.80;;
55216;SDS011;41086;46.736;15.666;2022-12-07T14:59:46;25.52;;;12.70;;
55216;SDS011;41086;46.736;15.666;2022-12-07T15:02:13;30.35;;;14.98;;
55216;SDS011;41086;46.736;15.666;2022-12-07T15:04:41;27.90;;;14.88;;
55216;SDS011;41086;46.736;15.666;2022-12-07T15:07:16;30.88;;;16.90;;
55216;SDS011;41086;46.736;15.666;2022-12-07T15:09:46;28.73;;;15.38;;
55216;SDS011;41086;46.736;15.666;2022-12-07T15:12:14;34.05;;;19.48;;
55216;SDS011;41086;46.736;15.666;2022-12-07T15:14:41;35.78;;;18.70;;
55216;SDS011;41086;46.736;15.666;2022-12-07T15:17:09;30.40;;;16.35;;
55216;SDS011;41086;46.736;15.666;2022-12-07T15:19:51;30.40;;;17.83;;
55216;SDS011;41086;46.736;15.666;2022-12-07T15:22:18;31.48;;;16.98;;
55216;SDS011;41086;46.736;15.666;2022-12-07T15:24:44;36.80;;;19.80;;
55216;SDS011;41086;46.736;15.666;2022-12-07T15:27:11;29.35;;;16.52;;
55216;SDS011;41086;46.736;15.666;2022-12-07T15:29:38;33.13;;;18.48;;
55216;SDS011;41086;46.736;15.666;2022-12-07T15:32:05;31.15;;;17.15;;
55216;SDS011;41086;46.736;15.666;2022-12-07T15:34:32;37.88;;;17.67;;
55216;SDS011;41086;46.736;15.666;2022-12-07T15:37:05;30.30;;;15.38;;
55216;SDS011;41086;46.736;15.666;2022-12-07T15:39:33;34.17;;;17.95;;
55216;SDS011;41086;46.736;15.666;2022-12-07T15:42:03;38.10;;;20.30;;
55216;SDS011;41086;46.736;15.666;2022-12-07T15:44:30;34.47;;;18.73;;
55216;SDS011;41086;46.736;15.666;2022-12-07T15:47:15;37.08;;;18.30;;
55216;SDS011;41086;46.736;15.666;2022-12-07T15:49:42;40.45;;;19.15;;
55216;SDS011;41086;46.736;15.666;2022-12-07T15:52:09;40.63;;;22.27;;
55216;SDS011;41086;46.736;15.666;2022-12-07T15:54:36;37.47;;;18.05;;
55216;SDS011;41086;46.736;15.666;2022-12-07T15:57:04;34.95;;;18.52;;
55216;SDS011;41086;46.736;15.666;2022-12-07T15:59:31;36.08;;;20.40;;
55216;SDS011;41086;46.736;15.666;2022-12-07T16:01:58;35.70;;;18.63;;
55216;SDS011;41086;46.736;15.666;2022-12-07T16:04:26;152.38;;;85.47;;
55216;SDS011;41086;46.736;15.666;2022-12-07T16:06:55;51.05;;;18.02;;
55216;SDS011;41086;46.736;15.666;2022-12-07T16:09:23;37.03;;;18.70;;
55216;SDS011;41086;46.736;15.666;2022-12-07T16:11:50;36.10;;;18.92;;
55216;SDS011;41086;46.736;15.666;2022-12-07T16:14:19;38.90;;;20.88;;
55216;SDS011;41086;46.736;15.666;2022-12-07T16:16:47;34.00;;;18.05;;
55216;SDS011;41086;46.736;15.666;2022-12-07T16:19:15;35.85;;;17.63;;
55216;SDS011;41086;46.736;15.666;2022-12-07T16:21:42;36.65;;;17.90;;
55216;SDS011;41086;46.736;15.666;2022-12-07T16:24:10;32.83;;;16.73;;
55216;SDS011;41086;46.736;15.666;2022-12-07T16:26:39;35.17;;;17.42;;
55216;SDS011;41086;46.736;15.666;2022-12-07T16:29:15;35.45;;;18.10;;
55216;SDS011;41086;46.736;15.666;2022-12-07T16:31:43;35.40;;;18.95;;
55216;SDS011;41086;46.736;15.666;2022-12-07T16:34:10;35.72;;;17.70;;
55216;SDS011;41086;46.736;15.666;2022-12-07T16:36:38;31.80;;;18.02;;
55216;SDS011;41086;46.736;15.666;2022-12-07T16:39:25;35.25;;;17.80;;
55216;SDS011;41086;46.736;15.666;2022-12-07T16:41:53;37.20;;;19.13;;
55216;SDS011;41086;46.736;15.666;2022-12-07T16:44:20;37.75;;;20.15;;
55216;SDS011;41086;46.736;15.666;2022-12-07T16:46:48;36.30;;;19.65;;
55216;SDS011;41086;46.736;15.666;2022-12-07T16:49:16;35.75;;;17.98;;
55216;SDS011;41086;46.736;15.666;2022-12-07T16:51:43;33.75;;;18.08;;
55216;SDS011;41086;46.736;15.666;2022-12-07T16:54:11;32.65;;;18.08;;